Mount Hermon, Kentucky
Current Conditions -  °F | °C
As of 11:15 PM on Monday 22 Dec 2014 (Local Time) from KGLW Reporting Station
Overcast Overcast  
Wind Chill: 52°   Ceiling: 1600
Heat Index: 52°   Visibility: 10mi
Dew Point: 52°   Wind: 5mph
Humidity: 100%   Direction: 180°S
Pressure: 29.73"   Gusts: NA
Location:  36.81°N, 85.82°W
Report Text: KGLW 230515Z AUTO 18004KT 10SM OVC016 11/11 A2973 RMK AO2 T01110111
Loading
Personal Weather Stations






























Interactive Weather Map New forecast layout! Learn more

10-Day Weather Forecast

Advertisements
Track Severe Weather on mobile